sensor_id;sensor_type;location;lat;lon;timestamp;pressure;altitude;pressure_sealevel;temperature;humidity
21779;BME280;11050;52.222;20.916;2023-12-20T00:01:36;99336.25;;;7.12;100.00
21779;BME280;11050;52.222;20.916;2023-12-20T00:04:02;99350.25;;;7.20;100.00
21779;BME280;11050;52.222;20.916;2023-12-20T00:06:29;99309.09;;;7.05;100.00
21779;BME280;11050;52.222;20.916;2023-12-20T00:08:55;99322.63;;;7.17;100.00
21779;BME280;11050;52.222;20.916;2023-12-20T00:11:21;99314.91;;;7.09;100.00
21779;BME280;11050;52.222;20.916;2023-12-20T00:13:46;99325.63;;;7.15;100.00
21779;BME280;11050;52.222;20.916;2023-12-20T00:16:12;99309.22;;;7.15;100.00
21779;BME280;11050;52.222;20.916;2023-12-20T00:18:38;99313.06;;;7.14;100.00
21779;BME280;11050;52.222;20.916;2023-12-20T00:21:04;99327.59;;;7.20;100.00
21779;BME280;11050;52.222;20.916;2023-12-20T00:23:29;99314.69;;;7.15;100.00
21779;BME280;11050;52.222;20.916;2023-12-20T00:25:55;99313.66;;;7.21;100.00
21779;BME280;11050;52.222;20.916;2023-12-20T00:28:21;99308.72;;;7.18;100.00
21779;BME280;11050;52.222;20.916;2023-12-20T00:30:47;99321.56;;;7.18;100.00
21779;BME280;11050;52.222;20.916;2023-12-20T00:33:13;99310.91;;;7.16;100.00
21779;BME280;11050;52.222;20.916;2023-12-20T00:35:39;99308.16;;;7.16;100.00
21779;BME280;11050;52.222;20.916;2023-12-20T00:38:04;99318.03;;;7.22;100.00
21779;BME280;11050;52.222;20.916;2023-12-20T00:40:32;99306.53;;;7.20;100.00
21779;BME280;11050;52.222;20.916;2023-12-20T00:42:58;99299.41;;;7.14;100.00
21779;BME280;11050;52.222;20.916;2023-12-20T00:45:24;99303.75;;;7.15;100.00
21779;BME280;11050;52.222;20.916;2023-12-20T00:47:49;99298.13;;;7.22;100.00
21779;BME280;11050;52.222;20.916;2023-12-20T00:50:15;99286.03;;;7.18;100.00
21779;BME280;11050;52.222;20.916;2023-12-20T00:52:41;99289.78;;;7.12;100.00
21779;BME280;11050;52.222;20.916;2023-12-20T00:55:07;99293.66;;;7.16;100.00
21779;BME280;11050;52.222;20.916;2023-12-20T00:57:33;99289.59;;;7.18;100.00
21779;BME280;11050;52.222;20.916;2023-12-20T00:59:59;99289.66;;;7.23;100.00
21779;BME280;11050;52.222;20.916;2023-12-20T01:02:25;99282.78;;;7.21;100.00
21779;BME280;11050;52.222;20.916;2023-12-20T01:04:50;99288.00;;;7.22;100.00
21779;BME280;11050;52.222;20.916;2023-12-20T01:07:16;99284.19;;;7.23;100.00
21779;BME280;11050;52.222;20.916;2023-12-20T01:09:42;99294.59;;;7.26;100.00
21779;BME280;11050;52.222;20.916;2023-12-20T01:12:07;99289.91;;;7.22;100.00
21779;BME280;11050;52.222;20.916;2023-12-20T01:14:33;99287.94;;;7.17;100.00
21779;BME280;11050;52.222;20.916;2023-12-20T01:16:59;99280.78;;;7.11;100.00
21779;BME280;11050;52.222;20.916;2023-12-20T01:19:25;99286.63;;;7.20;100.00
21779;BME280;11050;52.222;20.916;2023-12-20T01:21:52;99281.16;;;7.20;100.00
21779;BME280;11050;52.222;20.916;2023-12-20T01:24:18;99284.44;;;7.22;100.00
21779;BME280;11050;52.222;20.916;2023-12-20T01:26:43;99269.97;;;7.21;100.00
21779;BME280;11050;52.222;20.916;2023-12-20T01:29:09;99267.50;;;7.20;100.00
21779;BME280;11050;52.222;20.916;2023-12-20T01:31:35;99278.72;;;7.23;100.00
21779;BME280;11050;52.222;20.916;2023-12-20T01:34:00;99261.22;;;7.24;100.00
21779;BME280;11050;52.222;20.916;2023-12-20T01:36:26;99266.47;;;7.26;100.00
21779;BME280;11050;52.222;20.916;2023-12-20T01:38:52;99259.63;;;7.28;100.00
21779;BME280;11050;52.222;20.916;2023-12-20T01:41:18;99267.56;;;7.30;100.00
21779;BME280;11050;52.222;20.916;2023-12-20T01:43:43;99254.69;;;7.25;100.00
21779;BME280;11050;52.222;20.916;2023-12-20T01:46:09;99260.44;;;7.24;100.00
21779;BME280;11050;52.222;20.916;2023-12-20T01:48:36;99263.22;;;7.29;100.00
21779;BME280;11050;52.222;20.916;2023-12-20T01:51:03;99251.41;;;7.23;100.00
21779;BME280;11050;52.222;20.916;2023-12-20T01:53:29;99256.03;;;7.23;100.00
21779;BME280;11050;52.222;20.916;2023-12-20T01:55:57;99264.81;;;7.25;100.00
21779;BME280;11050;52.222;20.916;2023-12-20T01:58:24;99256.59;;;7.25;100.00
21779;BME280;11050;52.222;20.916;2023-12-20T02:00:51;99253.25;;;7.18;100.00
21779;BME280;11050;52.222;20.916;2023-12-20T02:03:18;99258.19;;;7.21;100.00
21779;BME280;11050;52.222;20.916;2023-12-20T02:05:45;99249.97;;;7.16;100.00
21779;BME280;11050;52.222;20.916;2023-12-20T02:08:11;99245.09;;;7.23;100.00
21779;BME280;11050;52.222;20.916;2023-12-20T02:10:37;99233.75;;;7.09;100.00
21779;BME280;11050;52.222;20.916;2023-12-20T02:13:04;99246.13;;;7.17;100.00
21779;BME280;11050;52.222;20.916;2023-12-20T02:15:30;99243.97;;;7.19;100.00
21779;BME280;11050;52.222;20.916;2023-12-20T02:17:56;99235.19;;;7.17;100.00
21779;BME280;11050;52.222;20.916;2023-12-20T02:20:22;99231.66;;;7.16;100.00
21779;BME280;11050;52.222;20.916;2023-12-20T02:22:47;99233.25;;;7.12;100.00
21779;BME280;11050;52.222;20.916;2023-12-20T02:25:13;99239.88;;;7.16;100.00
21779;BME280;11050;52.222;20.916;2023-12-20T02:27:40;99228.72;;;7.23;100.00
21779;BME280;11050;52.222;20.916;2023-12-20T02:30:06;99220.97;;;7.15;100.00
21779;BME280;11050;52.222;20.916;2023-12-20T02:32:32;99211.41;;;7.12;100.00
21779;BME280;11050;52.222;20.916;2023-12-20T02:34:58;99218.00;;;7.16;100.00
21779;BME280;11050;52.222;20.916;2023-12-20T02:37:24;99213.03;;;7.13;100.00
21779;BME280;11050;52.222;20.916;2023-12-20T02:39:49;99220.16;;;7.14;100.00
21779;BME280;11050;52.222;20.916;2023-12-20T02:42:15;99217.47;;;7.19;100.00
21779;BME280;11050;52.222;20.916;2023-12-20T02:44:41;99206.81;;;7.18;100.00
21779;BME280;11050;52.222;20.916;2023-12-20T02:47:06;99211.72;;;7.16;100.00
21779;BME280;11050;52.222;20.916;2023-12-20T02:49:32;99202.41;;;7.17;100.00
21779;BME280;11050;52.222;20.916;2023-12-20T02:51:58;99202.13;;;7.13;100.00
21779;BME280;11050;52.222;20.916;2023-12-20T02:54:23;99182.50;;;7.16;100.00
21779;BME280;11050;52.222;20.916;2023-12-20T02:56:50;99202.22;;;7.23;100.00
21779;BME280;11050;52.222;20.916;2023-12-20T02:59:15;99189.84;;;7.16;100.00
21779;BME280;11050;52.222;20.916;2023-12-20T03:01:45;99203.25;;;7.17;100.00
21779;BME280;11050;52.222;20.916;2023-12-20T03:04:12;99197.78;;;7.17;100.00
21779;BME280;11050;52.222;20.916;2023-12-20T03:06:38;99205.41;;;7.15;100.00
21779;BME280;11050;52.222;20.916;2023-12-20T03:09:04;99206.56;;;7.19;100.00
21779;BME280;11050;52.222;20.916;2023-12-20T03:11:30;99191.50;;;7.17;100.00
21779;BME280;11050;52.222;20.916;2023-12-20T03:13:57;99186.81;;;7.12;100.00
21779;BME280;11050;52.222;20.916;2023-12-20T03:16:23;99176.47;;;7.14;100.00
21779;BME280;11050;52.222;20.916;2023-12-20T03:18:49;99177.59;;;7.18;100.00
21779;BME280;11050;52.222;20.916;2023-12-20T03:21:15;99197.78;;;7.17;100.00
21779;BME280;11050;52.222;20.916;2023-12-20T03:23:41;99186.03;;;7.17;100.00
21779;BME280;11050;52.222;20.916;2023-12-20T03:26:08;99197.53;;;7.19;100.00
21779;BME280;11050;52.222;20.916;2023-12-20T03:28:34;99197.78;;;7.17;100.00
21779;BME280;11050;52.222;20.916;2023-12-20T03:31:01;99197.25;;;7.20;100.00
21779;BME280;11050;52.222;20.916;2023-12-20T03:33:28;99184.41;;;7.16;100.00
21779;BME280;11050;52.222;20.916;2023-12-20T03:35:53;99193.16;;;7.18;100.00
21779;BME280;11050;52.222;20.916;2023-12-20T03:38:20;99180.56;;;7.17;100.00
21779;BME280;11050;52.222;20.916;2023-12-20T03:40:46;99179.53;;;7.23;100.00
21779;BME280;11050;52.222;20.916;2023-12-20T03:43:11;99170.50;;;7.22;100.00
21779;BME280;11050;52.222;20.916;2023-12-20T03:45:37;99169.41;;;7.18;100.00
21779;BME280;11050;52.222;20.916;2023-12-20T03:48:03;99193.72;;;7.20;100.00
21779;BME280;11050;52.222;20.916;2023-12-20T03:50:29;99182.78;;;7.20;100.00
21779;BME280;11050;52.222;20.916;2023-12-20T03:52:55;99183.06;;;7.18;100.00
21779;BME280;11050;52.222;20.916;2023-12-20T03:55:20;99180.38;;;7.23;100.00
21779;BME280;11050;52.222;20.916;2023-12-20T03:57:46;99178.09;;;7.15;100.00
21779;BME280;11050;52.222;20.916;2023-12-20T04:00:12;99181.09;;;7.14;100.00
21779;BME280;11050;52.222;20.916;2023-12-20T04:02:39;99168.28;;;7.14;100.00
21779;BME280;11050;52.222;20.916;2023-12-20T04:05:06;99169.63;;;7.17;100.00
21779;BME280;11050;52.222;20.916;2023-12-20T04:07:32;99170.47;;;7.17;100.00
21779;BME280;11050;52.222;20.916;2023-12-20T04:09:58;99183.56;;;7.15;100.00
21779;BME280;11050;52.222;20.916;2023-12-20T04:12:24;99176.22;;;7.21;100.00
21779;BME280;11050;52.222;20.916;2023-12-20T04:14:50;99165.28;;;7.16;100.00
21779;BME280;11050;52.222;20.916;2023-12-20T04:17:16;99173.25;;;7.22;100.00
21779;BME280;11050;52.222;20.916;2023-12-20T04:19:42;99196.19;;;7.21;100.00
21779;BME280;11050;52.222;20.916;2023-12-20T04:22:08;99178.69;;;7.22;100.00
21779;BME280;11050;52.222;20.916;2023-12-20T04:24:34;99181.44;;;7.22;100.00
21779;BME280;11050;52.222;20.916;2023-12-20T04:27:01;99182.84;;;7.25;100.00
21779;BME280;11050;52.222;20.916;2023-12-20T04:29:27;99188.00;;;7.21;100.00
21779;BME280;11050;52.222;20.916;2023-12-20T04:31:52;99177.38;;;7.25;100.00
21779;BME280;11050;52.222;20.916;2023-12-20T04:34:18;99179.84;;;7.26;100.00
21779;BME280;11050;52.222;20.916;2023-12-20T04:36:44;99174.91;;;7.23;100.00
21779;BME280;11050;52.222;20.916;2023-12-20T04:39:12;99179.06;;;7.31;100.00
21779;BME280;11050;52.222;20.916;2023-12-20T04:41:38;99188.09;;;7.31;100.00
21779;BME280;11050;52.222;20.916;2023-12-20T04:44:05;99192.69;;;7.26;100.00
21779;BME280;11050;52.222;20.916;2023-12-20T04:46:31;99179.50;;;7.18;100.00
21779;BME280;11050;52.222;20.916;2023-12-20T04:48:57;99170.47;;;7.17;100.00
21779;BME280;11050;52.222;20.916;2023-12-20T04:51:23;99181.44;;;7.22;100.00
21779;BME280;11050;52.222;20.916;2023-12-20T04:53:49;99182.84;;;7.25;100.00
21779;BME280;11050;52.222;20.916;2023-12-20T04:56:14;99179.25;;;7.24;100.00
21779;BME280;11050;52.222;20.916;2023-12-20T04:58:40;99173.81;;;7.24;100.00
21779;BME280;11050;52.222;20.916;2023-12-20T05:01:06;99168.03;;;7.21;100.00
21779;BME280;11050;52.222;20.916;2023-12-20T05:03:32;99178.47;;;7.24;100.00
21779;BME280;11050;52.222;20.916;2023-12-20T05:05:58;99169.47;;;7.28;100.00
21779;BME280;11050;52.222;20.916;2023-12-20T05:08:24;99171.38;;;7.28;100.00
21779;BME280;11050;52.222;20.916;2023-12-20T05:10:52;99179.34;;;7.29;100.00
21779;BME280;11050;52.222;20.916;2023-12-20T05:13:19;99165.09;;;7.27;100.00
21779;BME280;11050;52.222;20.916;2023-12-20T05:15:45;99161.28;;;7.28;100.00
21779;BME280;11050;52.222;20.916;2023-12-20T05:18:10;99157.47;;;7.29;100.00
21779;BME280;11050;52.222;20.916;2023-12-20T05:20:36;99157.47;;;7.29;100.00
21779;BME280;11050;52.222;20.916;2023-12-20T05:23:02;99157.47;;;7.29;100.00
21779;BME280;11050;52.222;20.916;2023-12-20T05:25:28;99158.28;;;7.30;100.00
21779;BME280;11050;52.222;20.916;2023-12-20T05:27:54;99161.34;;;7.33;100.00
21779;BME280;11050;52.222;20.916;2023-12-20T05:30:19;99161.06;;;7.35;100.00
21779;BME280;11050;52.222;20.916;2023-12-20T05:32:45;99157.97;;;7.26;100.00
21779;BME280;11050;52.222;20.916;2023-12-20T05:35:11;99153.63;;;7.30;100.00
21779;BME280;11050;52.222;20.916;2023-12-20T05:37:36;99150.56;;;7.22;100.00
21779;BME280;11050;52.222;20.916;2023-12-20T05:40:03;99151.16;;;7.24;100.00
21779;BME280;11050;52.222;20.916;2023-12-20T05:42:29;99162.31;;;7.22;100.00
21779;BME280;11050;52.222;20.916;2023-12-20T05:44:55;99160.72;;;7.26;100.00
21779;BME280;11050;52.222;20.916;2023-12-20T05:47:21;99151.16;;;7.24;100.00
21779;BME280;11050;52.222;20.916;2023-12-20T05:49:46;99138.50;;;7.18;100.00
21779;BME280;11050;52.222;20.916;2023-12-20T05:52:12;99150.78;;;7.15;100.00
21779;BME280;11050;52.222;20.916;2023-12-20T05:54:38;99156.84;;;7.22;100.00
21779;BME280;11050;52.222;20.916;2023-12-20T05:57:04;99152.75;;;7.20;100.00
21779;BME280;11050;52.222;20.916;2023-12-20T05:59:29;99143.44;;;7.21;100.00
21779;BME280;11050;52.222;20.916;2023-12-20T06:01:55;99154.09;;;7.22;100.00
21779;BME280;11050;52.222;20.916;2023-12-20T06:04:20;99151.38;;;7.22;100.00
21779;BME280;11050;52.222;20.916;2023-12-20T06:06:46;99147.78;;;7.17;100.00
21779;BME280;11050;52.222;20.916;2023-12-20T06:09:12;99151.34;;;7.17;100.00
21779;BME280;11050;52.222;20.916;2023-12-20T06:11:38;99159.25;;;7.14;100.00
21779;BME280;11050;52.222;20.916;2023-12-20T06:14:03;99154.34;;;7.16;100.00
21779;BME280;11050;52.222;20.916;2023-12-20T06:16:29;99153.47;;;7.10;100.00
21779;BME280;11050;52.222;20.916;2023-12-20T06:18:55;99146.13;;;7.11;100.00
21779;BME280;11050;52.222;20.916;2023-12-20T06:21:20;99159.00;;;7.20;100.00
21779;BME280;11050;52.222;20.916;2023-12-20T06:23:46;99151.34;;;7.17;100.00
21779;BME280;11050;52.222;20.916;2023-12-20T06:26:12;99152.19;;;7.18;100.00
21779;BME280;11050;52.222;20.916;2023-12-20T06:28:37;99148.03;;;7.15;100.00
21779;BME280;11050;52.222;20.916;2023-12-20T06:31:03;99154.06;;;7.17;100.00
21779;BME280;11050;52.222;20.916;2023-12-20T06:33:29;99163.38;;;7.16;100.00
21779;BME280;11050;52.222;20.916;2023-12-20T06:35:57;99150.22;;;7.13;100.00
21779;BME280;11050;52.222;20.916;2023-12-20T06:38:23;99153.97;;;7.07;100.00
21779;BME280;11050;52.222;20.916;2023-12-20T06:40:48;99158.41;;;7.13;100.00
21779;BME280;11050;52.222;20.916;2023-12-20T06:43:14;99157.84;;;7.11;100.00
21779;BME280;11050;52.222;20.916;2023-12-20T06:45:40;99164.13;;;7.12;100.00
21779;BME280;11050;52.222;20.916;2023-12-20T06:48:06;99157.84;;;7.11;100.00
21779;BME280;11050;52.222;20.916;2023-12-20T06:50:33;99162.81;;;7.14;100.00
21779;BME280;11050;52.222;20.916;2023-12-20T06:52:58;99155.97;;;7.17;100.00
21779;BME280;11050;52.222;20.916;2023-12-20T06:55:24;99158.72;;;7.17;100.00
21779;BME280;11050;52.222;20.916;2023-12-20T06:57:50;99157.91;;;7.16;100.00
21779;BME280;11050;52.222;20.916;2023-12-20T07:00:16;99159.22;;;7.09;100.00
21779;BME280;11050;52.222;20.916;2023-12-20T07:02:44;99165.78;;;7.13;100.00
21779;BME280;11050;52.222;20.916;2023-12-20T07:05:09;99152.06;;;7.08;100.00
21779;BME280;11050;52.222;20.916;2023-12-20T07:07:35;99165.72;;;7.08;100.00
21779;BME280;11050;52.222;20.916;2023-12-20T07:10:01;99144.72;;;7.08;100.00
21779;BME280;11050;52.222;20.916;2023-12-20T07:12:26;99149.38;;;7.13;100.00
21779;BME280;11050;52.222;20.916;2023-12-20T07:14:52;99160.31;;;7.13;100.00
21779;BME280;11050;52.222;20.916;2023-12-20T07:17:17;99164.41;;;7.10;100.00
21779;BME280;11050;52.222;20.916;2023-12-20T07:19:43;99159.97;;;7.04;100.00
21779;BME280;11050;52.222;20.916;2023-12-20T07:22:09;99158.09;;;7.10;100.00
21779;BME280;11050;52.222;20.916;2023-12-20T07:24:34;99165.28;;;7.16;100.00
21779;BME280;11050;52.222;20.916;2023-12-20T07:27:01;99169.34;;;7.13;100.00
21779;BME280;11050;52.222;20.916;2023-12-20T07:29:27;99172.63;;;7.15;100.00
21779;BME280;11050;52.222;20.916;2023-12-20T07:31:53;99163.03;;;7.13;100.00
21779;BME280;11050;52.222;20.916;2023-12-20T07:34:23;99150.19;;;7.08;100.00
21779;BME280;11050;52.222;20.916;2023-12-20T07:36:48;99165.00;;;7.17;100.00
21779;BME280;11050;52.222;20.916;2023-12-20T07:39:14;99163.66;;;7.20;100.00
21779;BME280;11050;52.222;20.916;2023-12-20T07:41:40;99162.31;;;7.22;100.00
21779;BME280;11050;52.222;20.916;2023-12-20T07:44:06;99167.75;;;7.17;100.00
21779;BME280;11050;52.222;20.916;2023-12-20T07:46:32;99156.81;;;7.17;100.00
21779;BME280;11050;52.222;20.916;2023-12-20T07:48:58;99162.31;;;7.22;100.00
21779;BME280;11050;52.222;20.916;2023-12-20T07:51:23;99162.06;;;7.24;100.00
21779;BME280;11050;52.222;20.916;2023-12-20T07:53:49;99157.19;;;7.26;100.00
21779;BME280;11050;52.222;20.916;2023-12-20T07:56:19;99151.06;;;7.19;100.00
21779;BME280;11050;52.222;20.916;2023-12-20T07:58:45;99149.16;;;7.14;100.00
21779;BME280;11050;52.222;20.916;2023-12-20T08:01:12;99152.13;;;7.13;100.00
21779;BME280;11050;52.222;20.916;2023-12-20T08:03:38;99164.34;;;7.05;100.00
21779;BME280;11050;52.222;20.916;2023-12-20T08:06:04;99160.81;;;7.05;100.00
21779;BME280;11050;52.222;20.916;2023-12-20T08:08:30;99153.78;;;7.14;100.00
21779;BME280;11050;52.222;20.916;2023-12-20T08:10:56;99152.59;;;7.05;100.00
21779;BME280;11050;52.222;20.916;2023-12-20T08:13:24;99155.06;;;7.06;100.00
21779;BME280;11050;52.222;20.916;2023-12-20T08:15:55;99158.88;;;7.05;100.00
21779;BME280;11050;52.222;20.916;2023-12-20T08:18:21;99158.06;;;7.05;100.00
21779;BME280;11050;52.222;20.916;2023-12-20T08:20:48;99146.88;;;7.06;100.00
21779;BME280;11050;52.222;20.916;2023-12-20T08:23:15;99148.78;;;7.06;100.00
21779;BME280;11050;52.222;20.916;2023-12-20T08:25:41;99150.22;;;7.13;100.00
21779;BME280;11050;52.222;20.916;2023-12-20T08:28:06;99150.22;;;7.13;100.00
21779;BME280;11050;52.222;20.916;2023-12-20T08:30:32;99150.75;;;7.10;100.00
21779;BME280;11050;52.222;20.916;2023-12-20T08:33:01;99156.25;;;7.15;100.00
21779;BME280;11050;52.222;20.916;2023-12-20T08:35:28;99141.72;;;7.10;100.00
21779;BME280;11050;52.222;20.916;2023-12-20T08:37:53;99146.41;;;7.14;100.00
21779;BME280;11050;52.222;20.916;2023-12-20T08:40:19;99154.06;;;7.17;100.00
21779;BME280;11050;52.222;20.916;2023-12-20T08:42:45;99149.94;;;7.15;100.00
21779;BME280;11050;52.222;20.916;2023-12-20T08:45:11;99148.56;;;7.12;100.00
21779;BME280;11050;52.222;20.916;2023-12-20T08:47:37;99153.88;;;7.24;100.00
21779;BME280;11050;52.222;20.916;2023-12-20T08:50:03;99163.38;;;7.16;100.00
21779;BME280;11050;52.222;20.916;2023-12-20T08:52:29;99148.56;;;7.12;100.00
21779;BME280;11050;52.222;20.916;2023-12-20T08:54:55;99139.25;;;7.08;100.00
21779;BME280;11050;52.222;20.916;2023-12-20T08:57:21;99147.53;;;7.18;100.00
21779;BME280;11050;52.222;20.916;2023-12-20T08:59:49;99143.69;;;7.14;100.00
21779;BME280;11050;52.222;20.916;2023-12-20T09:02:16;99146.91;;;7.11;100.00
21779;BME280;11050;52.222;20.916;2023-12-20T09:04:42;99151.88;;;7.14;100.00
21779;BME280;11050;52.222;20.916;2023-12-20T09:07:25;99139.03;;;7.15;100.00
21779;BME280;11050;52.222;20.916;2023-12-20T09:09:52;99135.72;;;7.13;100.00
21779;BME280;11050;52.222;20.916;2023-12-20T09:12:21;99136.06;;;7.16;100.00
21779;BME280;11050;52.222;20.916;2023-12-20T09:14:49;99140.13;;;7.14;100.00
21779;BME280;11050;52.222;20.916;2023-12-20T09:17:16;99131.91;;;7.14;100.00
21779;BME280;11050;52.222;20.916;2023-12-20T09:19:43;99131.63;;;7.10;100.00
21779;BME280;11050;52.222;20.916;2023-12-20T09:22:09;99120.44;;;7.12;100.00
21779;BME280;11050;52.222;20.916;2023-12-20T09:24:36;99111.63;;;7.05;100.00
21779;BME280;11050;52.222;20.916;2023-12-20T09:27:02;99109.25;;;7.13;100.00
21779;BME280;11050;52.222;20.916;2023-12-20T09:29:28;99113.38;;;7.16;100.00
21779;BME280;11050;52.222;20.916;2023-12-20T09:31:54;99116.94;;;7.16;100.00
21779;BME280;11050;52.222;20.916;2023-12-20T09:34:20;99109.91;;;7.25;100.00
21779;BME280;11050;52.222;20.916;2023-12-20T09:36:47;99107.47;;;7.29;100.00
21779;BME280;11050;52.222;20.916;2023-12-20T09:39:18;99108.84;;;7.31;100.00
21779;BME280;11050;52.222;20.916;2023-12-20T09:42:01;99111.75;;;7.20;100.00
21779;BME280;11050;52.222;20.916;2023-12-20T09:44:28;99104.44;;;7.25;100.00
21779;BME280;11050;52.222;20.916;2023-12-20T09:46:56;99099.00;;;7.30;100.00
21779;BME280;11050;52.222;20.916;2023-12-20T09:49:22;99096.81;;;7.32;100.00
21779;BME280;11050;52.222;20.916;2023-12-20T09:51:50;99105.56;;;7.29;100.00
21779;BME280;11050;52.222;20.916;2023-12-20T09:54:17;99095.69;;;7.28;100.00
21779;BME280;11050;52.222;20.916;2023-12-20T09:56:44;99098.91;;;7.20;100.00
21779;BME280;11050;52.222;20.916;2023-12-20T09:59:10;99095.31;;;7.15;100.00
21779;BME280;11050;52.222;20.916;2023-12-20T10:01:41;99090.13;;;7.13;100.00
21779;BME280;11050;52.222;20.916;2023-12-20T10:04:10;99088.22;;;7.14;100.00
21779;BME280;11050;52.222;20.916;2023-12-20T10:06:44;99088.47;;;7.12;100.00
21779;BME280;11050;52.222;20.916;2023-12-20T10:09:11;99092.91;;;7.18;100.00
21779;BME280;11050;52.222;20.916;2023-12-20T10:11:40;99085.78;;;7.17;100.00
21779;BME280;11050;52.222;20.916;2023-12-20T10:14:07;99104.44;;;7.25;100.00
21779;BME280;11050;52.222;20.916;2023-12-20T10:16:34;99094.34;;;7.26;100.00
21779;BME280;11050;52.222;20.916;2023-12-20T10:19:00;99083.13;;;7.27;100.00
21779;BME280;11050;52.222;20.916;2023-12-20T10:21:30;99092.38;;;7.21;100.00
21779;BME280;11050;52.222;20.916;2023-12-20T10:23:56;99079.19;;;7.13;100.00
21779;BME280;11050;52.222;20.916;2023-12-20T10:26:26;99087.19;;;7.20;100.00
21779;BME280;11050;52.222;20.916;2023-12-20T10:28:55;99072.16;;;7.22;100.00
21779;BME280;11050;52.222;20.916;2023-12-20T10:31:33;99078.47;;;7.28;100.00
21779;BME280;11050;52.222;20.916;2023-12-20T10:34:02;99067.78;;;7.21;100.00
21779;BME280;11050;52.222;20.916;2023-12-20T10:36:30;99074.94;;;7.27;100.00
21779;BME280;11050;52.222;20.916;2023-12-20T10:38:57;99071.09;;;7.28;100.00
21779;BME280;11050;52.222;20.916;2023-12-20T10:41:29;99060.72;;;7.25;100.00
21779;BME280;11050;52.222;20.916;2023-12-20T10:44:00;99065.63;;;7.28;100.00
21779;BME280;11050;52.222;20.916;2023-12-20T10:46:27;99070.31;;;7.33;100.00
21779;BME280;11050;52.222;20.916;2023-12-20T10:48:57;99073.34;;;7.36;100.00
21779;BME280;11050;52.222;20.916;2023-12-20T10:51:24;99082.13;;;7.38;100.00
21779;BME280;11050;52.222;20.916;2023-12-20T10:53:53;99073.56;;;7.30;100.00
21779;BME280;11050;52.222;20.916;2023-12-20T10:56:19;99064.31;;;7.31;100.00
21779;BME280;11050;52.222;20.916;2023-12-20T10:58:48;99066.75;;;7.27;100.00
21779;BME280;11050;52.222;20.916;2023-12-20T11:01:16;99060.75;;;7.30;100.00
21779;BME280;11050;52.222;20.916;2023-12-20T11:03:54;99049.72;;;7.20;100.00
21779;BME280;11050;52.222;20.916;2023-12-20T11:09:25;99044.88;;;7.27;100.00
21779;BME280;11050;52.222;20.916;2023-12-20T11:13:06;99043.84;;;7.33;100.00
21779;BME280;11050;52.222;20.916;2023-12-20T11:15:38;99038.31;;;7.28;100.00
21779;BME280;11050;52.222;20.916;2023-12-20T11:18:05;99031.50;;;7.31;100.00
21779;BME280;11050;52.222;20.916;2023-12-20T11:20:42;99020.31;;;7.32;100.00
21779;BME280;11050;52.222;20.916;2023-12-20T11:23:08;99025.50;;;7.34;100.00
21779;BME280;11050;52.222;20.916;2023-12-20T11:25:52;99015.69;;;7.38;100.00
21779;BME280;11050;52.222;20.916;2023-12-20T11:28:23;99024.16;;;7.36;100.00
21779;BME280;11050;52.222;20.916;2023-12-20T11:30:53;99015.69;;;7.33;100.00
21779;BME280;11050;52.222;20.916;2023-12-20T11:33:24;99010.69;;;7.25;100.00
21779;BME280;11050;52.222;20.916;2023-12-20T11:35:50;99004.97;;;7.26;100.00
21779;BME280;11050;52.222;20.916;2023-12-20T11:38:17;98999.56;;;7.31;100.00
21779;BME280;11050;52.222;20.916;2023-12-20T11:40:49;99005.25;;;7.30;100.00
21779;BME280;11050;52.222;20.916;2023-12-20T11:43:53;99014.00;;;7.32;100.00
21779;BME280;11050;52.222;20.916;2023-12-20T11:46:20;98999.22;;;7.28;100.00
21779;BME280;11050;52.222;20.916;2023-12-20T11:48:47;98990.47;;;7.21;100.00
21779;BME280;11050;52.222;20.916;2023-12-20T11:51:14;98998.09;;;7.19;100.00
21779;BME280;11050;52.222;20.916;2023-12-20T11:53:42;98994.03;;;7.26;100.00
21779;BME280;11050;52.222;20.916;2023-12-20T11:56:10;98988.84;;;7.25;100.00
21779;BME280;11050;52.222;20.916;2023-12-20T11:58:36;99000.88;;;7.24;100.00
21779;BME280;11050;52.222;20.916;2023-12-20T12:01:02;98989.63;;;7.20;100.00
21779;BME280;11050;52.222;20.916;2023-12-20T12:03:30;98978.69;;;7.20;100.00
21779;BME280;11050;52.222;20.916;2023-12-20T12:05:57;98984.41;;;7.09;100.00
21779;BME280;11050;52.222;20.916;2023-12-20T12:08:23;98980.56;;;7.15;100.00
21779;BME280;11050;52.222;20.916;2023-12-20T12:10:49;98983.53;;;7.03;100.00
21779;BME280;11050;52.222;20.916;2023-12-20T12:13:15;98984.03;;;7.00;100.00
21779;BME280;11050;52.222;20.916;2023-12-20T12:15:42;98994.47;;;7.03;100.00
21779;BME280;11050;52.222;20.916;2023-12-20T12:18:08;98992.81;;;7.02;100.00
21779;BME280;11050;52.222;20.916;2023-12-20T12:20:33;98972.63;;;7.03;100.00
21779;BME280;11050;52.222;20.916;2023-12-20T12:23:01;98974.78;;;7.01;100.00
21779;BME280;11050;52.222;20.916;2023-12-20T12:25:29;98985.94;;;7.00;100.00
21779;BME280;11050;52.222;20.916;2023-12-20T12:27:59;98974.16;;;6.94;100.00
21779;BME280;11050;52.222;20.916;2023-12-20T12:30:25;98984.28;;;6.94;100.00
21779;BME280;11050;52.222;20.916;2023-12-20T12:32:52;98970.84;;;6.87;100.00
21779;BME280;11050;52.222;20.916;2023-12-20T12:35:19;98960.50;;;6.89;100.00
21779;BME280;11050;52.222;20.916;2023-12-20T12:37:45;98955.50;;;6.81;100.00
21779;BME280;11050;52.222;20.916;2023-12-20T12:40:16;98954.16;;;6.79;100.00
21779;BME280;11050;52.222;20.916;2023-12-20T12:42:44;98950.84;;;6.77;100.00
21779;BME280;11050;52.222;20.916;2023-12-20T12:45:10;98960.97;;;6.81;100.00
21779;BME280;11050;52.222;20.916;2023-12-20T12:47:40;98944.31;;;6.83;100.00
21779;BME280;11050;52.222;20.916;2023-12-20T12:50:06;98974.88;;;6.80;100.00
21779;BME280;11050;52.222;20.916;2023-12-20T12:52:32;98969.22;;;6.86;100.00